BAW818 EGLL-EKCH
Flight info
| Callsign | BAW818 |
|---|---|
| Flight time | 1h 24m |
| Altitude | 37000 |
| Route | BPK6J BPK Q295 SOMVA DCT MAVAS DCT ROCZO DCT DOSUR P729 TUDLO TUDLO4A |
| Aircraft | A320/M-VGDW/C |
Departure
| Time | 2026-04-26 17:42 |
|---|---|
| Airport | London Heathrow Airport (EGLL) |
Arrival
| Time | 2026-04-26 19:06 |
|---|---|
| Airport | Copenhagen Kastrup Airport (EKCH) |
| Time | Latitude | Longitude | Altitude | Speed | Heading |
|---|---|---|---|---|---|
| 2026-04-26 16:51 | 51.47188 | -0.48589 | 86 ft | 0 kts | 269° |
| 2026-04-26 17:34 | 51.47188 | -0.48572 | 89 ft | 3 kts | 269° |
| 2026-04-26 17:34 | 51.47188 | -0.48539 | 86 ft | 3 kts | 269° |
| 2026-04-26 17:34 | 51.47188 | -0.48508 | 86 ft | 3 kts | 256° |
| 2026-04-26 17:34 | 51.47195 | -0.48482 | 90 ft | 3 kts | 216° |
| 2026-04-26 17:35 | 51.47209 | -0.48473 | 89 ft | 1 kts | 180° |
| 2026-04-26 17:35 | 51.47221 | -0.48473 | 89 ft | 2 kts | 179° |
| 2026-04-26 17:35 | 51.47227 | -0.48473 | 86 ft | 0 kts | 179° |
| 2026-04-26 17:38 | 51.47211 | -0.48473 | 88 ft | 4 kts | 179° |
| 2026-04-26 17:38 | 51.47172 | -0.48472 | 88 ft | 7 kts | 179° |
| 2026-04-26 17:39 | 51.47089 | -0.48471 | 89 ft | 14 kts | 179° |
| 2026-04-26 17:39 | 51.46998 | -0.48470 | 88 ft | 11 kts | 180° |
| 2026-04-26 17:39 | 51.46913 | -0.48470 | 89 ft | 14 kts | 180° |
| 2026-04-26 17:39 | 51.46812 | -0.48469 | 86 ft | 13 kts | 180° |
| 2026-04-26 17:40 | 51.46784 | -0.48469 | 86 ft | 1 kts | 180° |
| 2026-04-26 17:40 | 51.46780 | -0.48469 | 86 ft | 1 kts | 180° |
| 2026-04-26 17:40 | 51.46719 | -0.48468 | 86 ft | 18 kts | 180° |
| 2026-04-26 17:40 | 51.46592 | -0.48466 | 86 ft | 16 kts | 179° |
| 2026-04-26 17:41 | 51.46498 | -0.48462 | 86 ft | 11 kts | 163° |
| 2026-04-26 17:41 | 51.46479 | -0.48395 | 87 ft | 1 kts | 91° |
| 2026-04-26 17:41 | 51.46479 | -0.48360 | 87 ft | 9 kts | 89° |
| 2026-04-26 17:41 | 51.46480 | -0.47883 | 87 ft | 79 kts | 90° |
| 2026-04-26 17:42 | 51.46486 | -0.46671 | 89 ft | 135 kts | 89° |
| 2026-04-26 17:42 | 51.46483 | -0.44976 | 395 ft | 155 kts | 91° |
| 2026-04-26 17:42 | 51.46485 | -0.43262 | 1151 ft | 154 kts | 89° |
| 2026-04-26 17:42 | 51.46587 | -0.41505 | 1696 ft | 168 kts | 75° |
| 2026-04-26 17:43 | 51.47146 | -0.39715 | 2056 ft | 193 kts | 52° |
| 2026-04-26 17:43 | 51.48071 | -0.37962 | 2441 ft | 219 kts | 51° |
| 2026-04-26 17:43 | 51.49106 | -0.35989 | 2945 ft | 243 kts | 51° |
| 2026-04-26 17:43 | 51.50234 | -0.33827 | 3655 ft | 258 kts | 51° |
| 2026-04-26 17:44 | 51.51398 | -0.31592 | 4634 ft | 263 kts | 50° |
| 2026-04-26 17:44 | 51.52456 | -0.29163 | 5528 ft | 270 kts | 65° |
| 2026-04-26 17:44 | 51.53124 | -0.26332 | 5875 ft | 272 kts | 71° |
| 2026-04-26 17:44 | 51.53847 | -0.23522 | 5986 ft | 273 kts | 59° |
| 2026-04-26 17:45 | 51.54993 | -0.21278 | 6011 ft | 273 kts | 41° |
| 2026-04-26 17:45 | 51.56606 | -0.19670 | 6013 ft | 273 kts | 22° |
| 2026-04-26 17:45 | 51.58371 | -0.18523 | 6037 ft | 273 kts | 22° |
| 2026-04-26 17:45 | 51.60162 | -0.17547 | 6036 ft | 274 kts | 16° |
| 2026-04-26 17:46 | 51.61991 | -0.16688 | 6061 ft | 275 kts | 16° |
| 2026-04-26 17:46 | 51.63853 | -0.15821 | 6281 ft | 277 kts | 16° |
| 2026-04-26 17:46 | 51.65694 | -0.14968 | 6300 ft | 275 kts | 16° |
| 2026-04-26 17:46 | 51.67532 | -0.14117 | 6302 ft | 274 kts | 16° |
| 2026-04-26 17:47 | 51.69365 | -0.13268 | 6303 ft | 274 kts | 16° |
| 2026-04-26 17:47 | 51.70543 | -0.12724 | 6302 ft | 274 kts | 16° |
| 2026-04-26 17:47 | 51.72954 | -0.11237 | 6298 ft | 274 kts | 33° |
| 2026-04-26 17:47 | 51.74354 | -0.09186 | 6301 ft | 274 kts | 53° |
| 2026-04-26 17:48 | 51.75241 | -0.06482 | 6301 ft | 274 kts | 73° |
| 2026-04-26 17:48 | 51.75581 | -0.03462 | 6300 ft | 274 kts | 83° |
| 2026-04-26 17:48 | 51.75828 | -0.00411 | 6310 ft | 275 kts | 83° |
| 2026-04-26 17:48 | 51.76082 | 0.02661 | 7034 ft | 279 kts | 83° |
| 2026-04-26 17:49 | 51.76341 | 0.05773 | 8001 ft | 282 kts | 82° |
| 2026-04-26 17:49 | 51.76605 | 0.08953 | 8892 ft | 288 kts | 82° |
| 2026-04-26 17:49 | 51.76873 | 0.12188 | 9728 ft | 295 kts | 82° |
| 2026-04-26 17:49 | 51.77147 | 0.15512 | 10474 ft | 305 kts | 82° |
| 2026-04-26 17:50 | 51.77436 | 0.19030 | 10763 ft | 328 kts | 82° |
| 2026-04-26 17:50 | 51.77743 | 0.22766 | 11253 ft | 341 kts | 83° |
| 2026-04-26 17:50 | 51.78055 | 0.26606 | 11946 ft | 347 kts | 83° |
| 2026-04-26 17:50 | 51.78384 | 0.30490 | 12716 ft | 351 kts | 80° |
| 2026-04-26 17:51 | 51.79113 | 0.34278 | 13462 ft | 356 kts | 70° |
| 2026-04-26 17:51 | 51.79986 | 0.38035 | 14210 ft | 360 kts | 70° |
| 2026-04-26 17:51 | 51.80885 | 0.41825 | 14889 ft | 364 kts | 69° |
| 2026-04-26 17:51 | 51.81800 | 0.45665 | 15558 ft | 367 kts | 69° |
| 2026-04-26 17:52 | 51.82718 | 0.49531 | 16208 ft | 371 kts | 69° |
| 2026-04-26 17:52 | 51.83645 | 0.53452 | 16888 ft | 374 kts | 69° |
| 2026-04-26 17:52 | 51.84572 | 0.57396 | 17554 ft | 377 kts | 69° |
| 2026-04-26 17:52 | 51.85503 | 0.61385 | 18226 ft | 381 kts | 70° |
| 2026-04-26 17:53 | 51.86440 | 0.65408 | 18849 ft | 384 kts | 70° |
| 2026-04-26 17:53 | 51.87386 | 0.69473 | 19428 ft | 388 kts | 69° |
| 2026-04-26 17:53 | 51.88330 | 0.73526 | 19999 ft | 392 kts | 69° |
| 2026-04-26 17:54 | 51.90266 | 0.81870 | 21159 ft | 400 kts | 69° |
| 2026-04-26 17:54 | 51.91249 | 0.86112 | 21707 ft | 404 kts | 69° |
| 2026-04-26 17:54 | 51.92242 | 0.90403 | 22256 ft | 408 kts | 69° |
| 2026-04-26 17:54 | 51.93245 | 0.94740 | 22800 ft | 412 kts | 69° |
| 2026-04-26 17:55 | 51.94249 | 0.99102 | 23349 ft | 416 kts | 69° |
| 2026-04-26 17:55 | 51.95262 | 1.03514 | 23882 ft | 421 kts | 69° |
| 2026-04-26 17:55 | 51.96284 | 1.07989 | 24337 ft | 425 kts | 69° |
| 2026-04-26 17:55 | 51.97307 | 1.12503 | 24794 ft | 428 kts | 69° |
| 2026-04-26 17:56 | 51.98334 | 1.17035 | 25236 ft | 431 kts | 69° |
| 2026-04-26 17:56 | 52.00415 | 1.26220 | 26113 ft | 437 kts | 69° |
| 2026-04-26 17:57 | 52.02535 | 1.35567 | 26964 ft | 444 kts | 69° |
| 2026-04-26 17:57 | 52.03607 | 1.40295 | 27370 ft | 447 kts | 69° |
| 2026-04-26 17:57 | 52.04666 | 1.44985 | 27773 ft | 450 kts | 69° |
| 2026-04-26 17:57 | 52.05738 | 1.49749 | 28181 ft | 452 kts | 69° |
| 2026-04-26 17:58 | 52.08984 | 1.64269 | 29430 ft | 459 kts | 69° |
| 2026-04-26 17:59 | 52.11160 | 1.74101 | 30228 ft | 464 kts | 69° |
| 2026-04-26 17:59 | 52.12251 | 1.79060 | 30579 ft | 467 kts | 69° |
| 2026-04-26 17:59 | 52.13352 | 1.84059 | 30914 ft | 469 kts | 69° |
| 2026-04-26 17:59 | 52.14455 | 1.89062 | 31248 ft | 471 kts | 69° |
| 2026-04-26 18:00 | 52.15561 | 1.94089 | 31576 ft | 474 kts | 69° |
| 2026-04-26 18:00 | 52.16674 | 1.99155 | 31894 ft | 476 kts | 69° |
| 2026-04-26 18:00 | 52.17793 | 2.04252 | 32236 ft | 477 kts | 69° |
| 2026-04-26 18:00 | 52.18903 | 2.09333 | 32695 ft | 476 kts | 69° |
| 2026-04-26 18:01 | 52.20007 | 2.14407 | 33154 ft | 474 kts | 69° |
| 2026-04-26 18:01 | 52.21107 | 2.19472 | 33628 ft | 473 kts | 69° |
| 2026-04-26 18:01 | 52.22199 | 2.24524 | 34097 ft | 472 kts | 69° |
| 2026-04-26 18:01 | 52.23284 | 2.29569 | 34532 ft | 471 kts | 69° |
| 2026-04-26 18:02 | 52.24366 | 2.34605 | 34939 ft | 470 kts | 69° |
| 2026-04-26 18:02 | 52.24714 | 2.36227 | 35058 ft | 469 kts | 69° |
| 2026-04-26 18:02 | 52.26520 | 2.44646 | 35712 ft | 468 kts | 69° |
| 2026-04-26 18:02 | 52.27793 | 2.49466 | 36081 ft | 463 kts | 56° |
| 2026-04-26 18:03 | 52.29568 | 2.53811 | 36455 ft | 459 kts | 52° |
| 2026-04-26 18:03 | 52.31367 | 2.58031 | 36814 ft | 458 kts | 52° |
| 2026-04-26 18:03 | 52.33197 | 2.62301 | 37166 ft | 457 kts | 52° |
| 2026-04-26 18:03 | 52.35027 | 2.66559 | 37309 ft | 457 kts | 52° |
| 2026-04-26 18:04 | 52.38663 | 2.75045 | 37328 ft | 454 kts | 52° |
| 2026-04-26 18:05 | 52.44076 | 2.87776 | 37332 ft | 454 kts | 52° |
| 2026-04-26 18:05 | 52.47679 | 2.96287 | 37331 ft | 454 kts | 52° |
| 2026-04-26 18:06 | 52.51266 | 3.04779 | 37336 ft | 454 kts | 52° |
| 2026-04-26 18:06 | 52.54841 | 3.13276 | 37339 ft | 454 kts | 52° |
| 2026-04-26 18:07 | 52.58447 | 3.21868 | 37339 ft | 454 kts | 52° |
| 2026-04-26 18:07 | 52.62027 | 3.30429 | 37342 ft | 454 kts | 52° |
| 2026-04-26 18:08 | 52.65594 | 3.38988 | 37348 ft | 455 kts | 52° |
| 2026-04-26 18:08 | 52.69108 | 3.47453 | 37350 ft | 455 kts | 52° |
| 2026-04-26 18:09 | 52.72668 | 3.56047 | 37368 ft | 455 kts | 52° |
| 2026-04-26 18:09 | 52.76266 | 3.64774 | 37361 ft | 455 kts | 52° |
| 2026-04-26 18:10 | 52.79818 | 3.73419 | 37357 ft | 455 kts | 52° |
| 2026-04-26 18:10 | 52.83376 | 3.82094 | 37355 ft | 455 kts | 52° |
| 2026-04-26 18:11 | 52.86919 | 3.90776 | 37353 ft | 455 kts | 52° |
| 2026-04-26 18:11 | 52.90447 | 3.99470 | 37360 ft | 456 kts | 52° |
| 2026-04-26 18:12 | 52.93979 | 4.08181 | 37385 ft | 456 kts | 52° |
| 2026-04-26 18:12 | 52.97508 | 4.16916 | 37372 ft | 456 kts | 52° |
| 2026-04-26 18:13 | 53.01029 | 4.25664 | 37366 ft | 456 kts | 52° |
| 2026-04-26 18:13 | 53.04551 | 4.34449 | 37366 ft | 456 kts | 52° |
| 2026-04-26 18:14 | 53.08072 | 4.43227 | 37372 ft | 457 kts | 52° |
| 2026-04-26 18:14 | 53.10996 | 4.50548 | 37377 ft | 457 kts | 52° |
| 2026-04-26 18:15 | 53.14498 | 4.59371 | 37378 ft | 457 kts | 52° |
| 2026-04-26 18:15 | 53.17999 | 4.68231 | 37391 ft | 457 kts | 52° |
| 2026-04-26 18:16 | 53.21488 | 4.77080 | 37381 ft | 457 kts | 52° |
| 2026-04-26 18:16 | 53.26725 | 4.90407 | 37376 ft | 458 kts | 52° |
| 2026-04-26 18:17 | 53.30214 | 4.99319 | 37370 ft | 458 kts | 53° |
| 2026-04-26 18:17 | 53.33656 | 5.08139 | 37369 ft | 458 kts | 53° |
| 2026-04-26 18:18 | 53.37122 | 5.17057 | 37379 ft | 458 kts | 53° |
| 2026-04-26 18:18 | 53.40578 | 5.25991 | 37382 ft | 458 kts | 53° |
| 2026-04-26 18:19 | 53.44012 | 5.34928 | 37395 ft | 458 kts | 53° |
| 2026-04-26 18:19 | 53.47496 | 5.43999 | 37383 ft | 457 kts | 53° |
| 2026-04-26 18:20 | 53.50885 | 5.52858 | 37382 ft | 457 kts | 53° |
| 2026-04-26 18:20 | 53.53785 | 5.60466 | 37381 ft | 457 kts | 53° |
| 2026-04-26 18:21 | 53.57799 | 5.71011 | 37385 ft | 457 kts | 53° |
| 2026-04-26 18:21 | 53.61215 | 5.80031 | 37404 ft | 457 kts | 53° |
| 2026-04-26 18:22 | 53.64627 | 5.89068 | 37387 ft | 457 kts | 53° |
| 2026-04-26 18:22 | 53.68029 | 5.98108 | 37378 ft | 457 kts | 53° |
| 2026-04-26 18:23 | 53.71428 | 6.07180 | 37369 ft | 457 kts | 53° |
| 2026-04-26 18:23 | 53.74817 | 6.16265 | 37370 ft | 457 kts | 53° |
| 2026-04-26 18:24 | 53.78176 | 6.25295 | 37369 ft | 457 kts | 53° |
| 2026-04-26 18:24 | 53.81556 | 6.34414 | 37373 ft | 457 kts | 53° |
| 2026-04-26 18:25 | 53.84826 | 6.43274 | 37380 ft | 456 kts | 53° |
| 2026-04-26 18:25 | 53.88177 | 6.52386 | 37376 ft | 456 kts | 53° |
| 2026-04-26 18:26 | 53.91519 | 6.61512 | 37367 ft | 456 kts | 54° |
| 2026-04-26 18:26 | 53.94857 | 6.70658 | 37366 ft | 456 kts | 54° |
| 2026-04-26 18:27 | 53.98189 | 6.79815 | 37364 ft | 456 kts | 54° |
| 2026-04-26 18:27 | 54.01517 | 6.88987 | 37381 ft | 456 kts | 54° |
| 2026-04-26 18:28 | 54.04835 | 6.98168 | 37390 ft | 455 kts | 54° |
| 2026-04-26 18:28 | 54.08144 | 7.07361 | 37377 ft | 455 kts | 54° |
| 2026-04-26 18:29 | 54.11440 | 7.16552 | 37372 ft | 455 kts | 54° |
| 2026-04-26 18:29 | 54.14736 | 7.25759 | 37362 ft | 455 kts | 54° |
| 2026-04-26 18:30 | 54.18017 | 7.34981 | 37360 ft | 455 kts | 54° |
| 2026-04-26 18:30 | 54.21272 | 7.44173 | 37377 ft | 455 kts | 54° |
| 2026-04-26 18:31 | 54.24537 | 7.53416 | 37371 ft | 454 kts | 54° |
| 2026-04-26 18:31 | 54.27751 | 7.62553 | 37382 ft | 454 kts | 54° |
| 2026-04-26 18:32 | 54.31001 | 7.71826 | 37368 ft | 454 kts | 54° |
| 2026-04-26 18:32 | 54.34243 | 7.81096 | 37363 ft | 453 kts | 54° |
| 2026-04-26 18:33 | 54.37477 | 7.90374 | 37358 ft | 453 kts | 54° |
| 2026-04-26 18:33 | 54.40700 | 7.99675 | 37352 ft | 454 kts | 54° |
| 2026-04-26 18:34 | 54.43917 | 8.08990 | 37364 ft | 454 kts | 54° |
| 2026-04-26 18:34 | 54.47120 | 8.18330 | 37353 ft | 453 kts | 54° |
| 2026-04-26 18:35 | 54.50320 | 8.27668 | 37363 ft | 453 kts | 54° |
| 2026-04-26 18:35 | 54.53495 | 8.36954 | 37343 ft | 453 kts | 54° |
| 2026-04-26 18:36 | 54.56679 | 8.46313 | 37350 ft | 453 kts | 55° |
| 2026-04-26 18:36 | 54.59831 | 8.55609 | 37347 ft | 453 kts | 55° |
| 2026-04-26 18:37 | 54.62991 | 8.65002 | 37359 ft | 453 kts | 55° |
| 2026-04-26 18:37 | 54.66147 | 8.74414 | 37347 ft | 453 kts | 55° |
| 2026-04-26 18:38 | 54.69178 | 8.83962 | 37370 ft | 454 kts | 58° |
| 2026-04-26 18:38 | 54.71936 | 8.93799 | 37352 ft | 456 kts | 60° |
| 2026-04-26 18:39 | 54.74638 | 9.03721 | 37340 ft | 455 kts | 60° |
| 2026-04-26 18:39 | 54.77389 | 9.13608 | 37330 ft | 455 kts | 59° |
| 2026-04-26 18:40 | 54.80170 | 9.23452 | 37328 ft | 455 kts | 59° |
| 2026-04-26 18:40 | 54.82948 | 9.33320 | 37265 ft | 455 kts | 59° |
| 2026-04-26 18:41 | 54.84324 | 9.38252 | 36762 ft | 454 kts | 59° |
| 2026-04-26 18:41 | 54.85694 | 9.43186 | 36126 ft | 454 kts | 59° |
| 2026-04-26 18:41 | 54.86964 | 9.47770 | 35530 ft | 455 kts | 59° |
| 2026-04-26 18:41 | 54.88377 | 9.52883 | 34921 ft | 455 kts | 59° |
| 2026-04-26 18:42 | 54.89739 | 9.57823 | 34477 ft | 452 kts | 59° |
| 2026-04-26 18:42 | 54.91094 | 9.62740 | 33971 ft | 449 kts | 59° |
| 2026-04-26 18:42 | 54.92436 | 9.67623 | 33461 ft | 446 kts | 59° |
| 2026-04-26 18:42 | 54.93765 | 9.72472 | 32945 ft | 443 kts | 59° |
| 2026-04-26 18:43 | 54.95070 | 9.77222 | 32426 ft | 440 kts | 59° |
| 2026-04-26 18:43 | 54.96380 | 9.82001 | 31916 ft | 437 kts | 59° |
| 2026-04-26 18:43 | 54.97682 | 9.86765 | 31406 ft | 435 kts | 60° |
| 2026-04-26 18:43 | 54.98976 | 9.91513 | 30881 ft | 433 kts | 60° |
| 2026-04-26 18:44 | 55.00258 | 9.96233 | 30368 ft | 431 kts | 60° |
| 2026-04-26 18:44 | 55.01534 | 10.00953 | 29818 ft | 428 kts | 60° |
| 2026-04-26 18:44 | 55.02797 | 10.05629 | 29336 ft | 424 kts | 60° |
| 2026-04-26 18:44 | 55.04050 | 10.10265 | 28859 ft | 420 kts | 60° |
| 2026-04-26 18:45 | 55.05288 | 10.14855 | 28380 ft | 417 kts | 60° |
| 2026-04-26 18:45 | 55.06515 | 10.19420 | 27931 ft | 414 kts | 60° |
| 2026-04-26 18:45 | 55.07733 | 10.23953 | 27479 ft | 411 kts | 60° |
| 2026-04-26 18:45 | 55.08941 | 10.28454 | 27042 ft | 409 kts | 60° |
| 2026-04-26 18:46 | 55.10141 | 10.32941 | 26603 ft | 407 kts | 59° |
| 2026-04-26 18:46 | 55.11288 | 10.37240 | 26185 ft | 405 kts | 60° |
| 2026-04-26 18:46 | 55.12472 | 10.41696 | 25748 ft | 404 kts | 60° |
| 2026-04-26 18:46 | 55.13651 | 10.46136 | 25301 ft | 403 kts | 60° |
| 2026-04-26 18:47 | 55.14824 | 10.50556 | 24843 ft | 403 kts | 60° |
| 2026-04-26 18:47 | 55.16006 | 10.55012 | 24382 ft | 402 kts | 60° |
| 2026-04-26 18:47 | 55.17182 | 10.59455 | 23901 ft | 402 kts | 60° |
| 2026-04-26 18:47 | 55.18350 | 10.63880 | 23381 ft | 401 kts | 60° |
| 2026-04-26 18:48 | 55.19515 | 10.68307 | 22895 ft | 399 kts | 60° |
| 2026-04-26 18:48 | 55.20669 | 10.72698 | 22405 ft | 396 kts | 60° |
| 2026-04-26 18:48 | 55.21799 | 10.77005 | 21913 ft | 394 kts | 60° |
| 2026-04-26 18:48 | 55.22936 | 10.81354 | 21428 ft | 391 kts | 60° |
| 2026-04-26 18:49 | 55.24065 | 10.85677 | 20933 ft | 388 kts | 60° |
| 2026-04-26 18:49 | 55.25184 | 10.89968 | 20443 ft | 386 kts | 60° |
| 2026-04-26 18:49 | 55.26292 | 10.94232 | 19954 ft | 383 kts | 60° |
| 2026-04-26 18:49 | 55.27392 | 10.98470 | 19466 ft | 381 kts | 60° |
| 2026-04-26 18:50 | 55.28481 | 11.02674 | 18965 ft | 379 kts | 60° |
| 2026-04-26 18:50 | 55.29571 | 11.06885 | 18402 ft | 378 kts | 60° |
| 2026-04-26 18:50 | 55.30656 | 11.11082 | 17802 ft | 377 kts | 60° |
| 2026-04-26 18:50 | 55.31737 | 11.15272 | 17195 ft | 376 kts | 60° |
| 2026-04-26 18:51 | 55.32814 | 11.19453 | 16585 ft | 375 kts | 60° |
| 2026-04-26 18:51 | 55.33885 | 11.23623 | 15997 ft | 374 kts | 60° |
| 2026-04-26 18:51 | 55.34948 | 11.27778 | 15422 ft | 372 kts | 60° |
| 2026-04-26 18:51 | 55.36003 | 11.31909 | 14856 ft | 371 kts | 60° |
| 2026-04-26 18:52 | 55.37055 | 11.36032 | 14292 ft | 369 kts | 60° |
| 2026-04-26 18:52 | 55.38097 | 11.40124 | 13698 ft | 366 kts | 60° |
| 2026-04-26 18:52 | 55.39129 | 11.44174 | 13145 ft | 363 kts | 60° |
| 2026-04-26 18:52 | 55.40133 | 11.48123 | 12659 ft | 358 kts | 60° |
| 2026-04-26 18:53 | 55.41138 | 11.52090 | 12175 ft | 353 kts | 61° |
| 2026-04-26 18:53 | 55.42130 | 11.56016 | 11691 ft | 349 kts | 61° |
| 2026-04-26 18:53 | 55.43111 | 11.59903 | 11218 ft | 345 kts | 61° |
| 2026-04-26 18:53 | 55.44141 | 11.63640 | 10909 ft | 327 kts | 53° |
| 2026-04-26 18:54 | 55.45355 | 11.66809 | 10783 ft | 300 kts | 50° |
| 2026-04-26 18:54 | 55.46514 | 11.69805 | 10658 ft | 294 kts | 50° |
| 2026-04-26 18:54 | 55.47628 | 11.72680 | 10490 ft | 291 kts | 50° |
| 2026-04-26 18:54 | 55.48797 | 11.75698 | 10302 ft | 290 kts | 50° |
| 2026-04-26 18:55 | 55.49894 | 11.78535 | 10073 ft | 289 kts | 50° |
| 2026-04-26 18:55 | 55.51046 | 11.81516 | 9792 ft | 288 kts | 50° |
| 2026-04-26 18:55 | 55.52147 | 11.84363 | 9530 ft | 287 kts | 50° |
| 2026-04-26 18:55 | 55.53292 | 11.87327 | 9299 ft | 284 kts | 50° |
| 2026-04-26 18:56 | 55.54406 | 11.90224 | 9166 ft | 286 kts | 51° |
| 2026-04-26 18:56 | 55.55483 | 11.93039 | 9040 ft | 285 kts | 51° |
| 2026-04-26 18:56 | 55.56620 | 11.96052 | 8904 ft | 286 kts | 54° |
| 2026-04-26 18:56 | 55.57269 | 11.99391 | 8703 ft | 295 kts | 80° |
| 2026-04-26 18:57 | 55.57063 | 12.03026 | 8223 ft | 303 kts | 107° |
| 2026-04-26 18:57 | 55.56792 | 12.04182 | 8057 ft | 301 kts | 117° |
| 2026-04-26 18:57 | 55.54647 | 12.08732 | 7514 ft | 279 kts | 135° |
| 2026-04-26 18:57 | 55.53318 | 12.11105 | 7176 ft | 269 kts | 135° |
| 2026-04-26 18:58 | 55.52006 | 12.13436 | 6686 ft | 266 kts | 135° |
| 2026-04-26 18:58 | 55.50671 | 12.15620 | 6234 ft | 259 kts | 142° |
| 2026-04-26 18:58 | 55.49252 | 12.17508 | 5763 ft | 254 kts | 145° |
| 2026-04-26 18:58 | 55.47831 | 12.19339 | 5264 ft | 251 kts | 145° |
| 2026-04-26 18:59 | 55.46430 | 12.21141 | 4768 ft | 248 kts | 145° |
| 2026-04-26 18:59 | 55.45086 | 12.22881 | 4598 ft | 231 kts | 145° |
| 2026-04-26 18:59 | 55.43895 | 12.24438 | 4466 ft | 216 kts | 145° |
| 2026-04-26 18:59 | 55.42755 | 12.26094 | 4100 ft | 213 kts | 129° |
| 2026-04-26 19:00 | 55.42207 | 12.28442 | 3722 ft | 207 kts | 90° |
| 2026-04-26 19:00 | 55.42327 | 12.30929 | 3432 ft | 203 kts | 77° |
| 2026-04-26 19:00 | 55.42576 | 12.33226 | 3158 ft | 199 kts | 74° |
| 2026-04-26 19:00 | 55.43109 | 12.35369 | 3032 ft | 185 kts | 51° |
| 2026-04-26 19:01 | 55.43965 | 12.36933 | 3007 ft | 174 kts | 37° |
| 2026-04-26 19:01 | 55.44870 | 12.38315 | 3004 ft | 172 kts | 37° |
| 2026-04-26 19:01 | 55.45771 | 12.39693 | 3005 ft | 171 kts | 37° |
| 2026-04-26 19:01 | 55.46667 | 12.41063 | 3010 ft | 171 kts | 37° |
| 2026-04-26 19:02 | 55.47262 | 12.41973 | 3006 ft | 171 kts | 37° |
| 2026-04-26 19:02 | 55.48156 | 12.43343 | 2908 ft | 169 kts | 36° |
| 2026-04-26 19:02 | 55.49309 | 12.45109 | 2662 ft | 165 kts | 37° |
| 2026-04-26 19:02 | 55.49602 | 12.45558 | 2590 ft | 165 kts | 37° |
| 2026-04-26 19:03 | 55.51032 | 12.47752 | 2225 ft | 163 kts | 38° |
| 2026-04-26 19:03 | 55.51601 | 12.48625 | 2075 ft | 159 kts | 38° |
| 2026-04-26 19:03 | 55.52418 | 12.49881 | 1855 ft | 152 kts | 38° |
| 2026-04-26 19:03 | 55.53192 | 12.51071 | 1650 ft | 148 kts | 38° |
| 2026-04-26 19:04 | 55.53966 | 12.52260 | 1453 ft | 147 kts | 38° |
| 2026-04-26 19:04 | 55.54737 | 12.53445 | 1245 ft | 147 kts | 38° |
| 2026-04-26 19:04 | 55.55506 | 12.54628 | 1039 ft | 146 kts | 39° |
| 2026-04-26 19:04 | 55.56268 | 12.55801 | 845 ft | 145 kts | 39° |
| 2026-04-26 19:05 | 55.57773 | 12.58103 | 435 ft | 140 kts | 40° |
| 2026-04-26 19:05 | 55.58506 | 12.59216 | 244 ft | 137 kts | 43° |
| 2026-04-26 19:05 | 55.59212 | 12.60333 | 67 ft | 136 kts | 43° |
| 2026-04-26 19:06 | 55.59878 | 12.61368 | 23 ft | 108 kts | 41° |
| 2026-04-26 19:06 | 55.60311 | 12.62040 | 24 ft | 53 kts | 41° |
| 2026-04-26 19:06 | 55.60512 | 12.62282 | 30 ft | 27 kts | 24° |
| 2026-04-26 19:06 | 55.60658 | 12.62350 | 25 ft | 21 kts | 13° |
| 2026-04-26 19:07 | 55.60762 | 12.62422 | 24 ft | 9 kts | 51° |
| 2026-04-26 19:07 | 55.60846 | 12.62488 | 24 ft | 24 kts | 35° |
| 2026-04-26 19:07 | 55.60994 | 12.62710 | 25 ft | 30 kts | 40° |
| 2026-04-26 19:07 | 55.61159 | 12.62966 | 24 ft | 33 kts | 42° |
| 2026-04-26 19:08 | 55.61369 | 12.63293 | 24 ft | 67 kts | 41° |
| 2026-04-26 19:08 | 55.61749 | 12.63880 | 24 ft | 62 kts | 42° |
| 2026-04-26 19:08 | 55.61967 | 12.64139 | 24 ft | 28 kts | 15° |
| 2026-04-26 19:08 | 55.62152 | 12.64289 | 23 ft | 31 kts | 31° |
| 2026-04-26 19:09 | 55.62298 | 12.64442 | 24 ft | 10 kts | 53° |
| 2026-04-26 19:09 | 55.62293 | 12.64541 | 24 ft | 28 kts | 88° |
| 2026-04-26 19:09 | 55.62324 | 12.64939 | 26 ft | 38 kts | 119° |
| 2026-04-26 19:09 | 55.62313 | 12.65179 | 24 ft | 12 kts | 30° |
| 2026-04-26 19:10 | 55.62510 | 12.65164 | 26 ft | 34 kts | 359° |
| 2026-04-26 19:10 | 55.62573 | 12.65039 | 24 ft | 13 kts | 270° |
| 2026-04-26 19:10 | 55.62573 | 12.65031 | 24 ft | 0 kts | 270° |